Terminal Aerodrome Forecast
Issued by NWS Cleveland, OH

Home | Current Version | Previous Version | Text Only | Print | Product List | Glossary Off
Versions: 1 2 3 4 5 6 7 8 9 10 11 12 13 14 15 16

477
FTUS41 KCLE 191120
TAFCAK
TAF
KCAK 191120Z 1912/2012 23004KT P6SM SCT045 BKN100
     FM191600 24008KT P6SM VCTS BKN035CB
      TEMPO 1918/1920 5SM -TSRA BR OVC035CB
     FM192000 28008KT P6SM -SHRA VCTS BKN040CB
     FM192300 30009KT P6SM SCT060
     FM200700 VRB03KT 5SM BR FEW200
      TEMPO 2009/2012 2SM BR=

USA.gov is the U.S. government's official web portal to all federal, state and local government web resources and services.